createdAt,value
2018-09-06T00:00:13.010Z,5.57
2018-09-06T00:05:17.848Z,5.13
2018-09-06T00:10:21.738Z,5.10
2018-09-06T00:15:25.347Z,5.60
2018-09-06T00:20:28.458Z,5.63
2018-09-06T00:25:31.831Z,5.10
2018-09-06T00:30:34.871Z,4.97
2018-09-06T00:35:37.959Z,5.17
2018-09-06T00:40:41.065Z,5.70
2018-09-06T00:45:45.561Z,5.37
2018-09-06T00:50:49.026Z,6.43
2018-09-06T00:55:52.419Z,5.73
2018-09-06T01:00:55.530Z,6.33
2018-09-06T01:05:58.513Z,6.43
2018-09-06T01:11:01.602Z,6.50
2018-09-06T01:16:05.089Z,7.03
2018-09-06T01:21:08.161Z,7.97
2018-09-06T01:26:11.305Z,7.63
2018-09-06T01:31:15.976Z,7.53
2018-09-06T01:36:24.850Z,7.53
2018-09-06T01:41:27.862Z,7.70
2018-09-06T01:46:30.926Z,7.87
2018-09-06T01:51:34.534Z,7.90
2018-09-06T01:56:37.717Z,7.97
2018-09-06T02:01:40.966Z,7.23
2018-09-06T02:06:45.126Z,9.10
2018-09-06T02:11:48.416Z,8.80
2018-09-06T02:16:51.693Z,9.20
2018-09-06T02:21:54.809Z,10.00
2018-09-06T02:26:57.838Z,9.13
2018-09-06T02:32:00.853Z,10.33
2018-09-06T02:37:03.865Z,9.70
2018-09-06T02:42:06.886Z,10.60
2018-09-06T02:47:09.880Z,10.73
2018-09-06T02:52:16.980Z,9.90
2018-09-06T02:57:20.270Z,10.57
2018-09-06T03:02:24.121Z,11.10
2018-09-06T03:07:27.194Z,10.80
2018-09-06T03:12:30.621Z,10.27
2018-09-06T03:17:33.621Z,11.50
2018-09-06T03:22:36.661Z,11.50
2018-09-06T03:27:39.646Z,12.10
2018-09-06T03:32:43.398Z,11.83
2018-09-06T03:37:47.125Z,11.23
2018-09-06T03:42:50.440Z,11.37
2018-09-06T03:47:53.541Z,11.60
2018-09-06T03:52:56.528Z,11.30
2018-09-06T03:57:59.702Z,10.70
2018-09-06T04:03:02.687Z,10.53
2018-09-06T04:08:05.745Z,11.00
2018-09-06T04:13:08.946Z,11.07
2018-09-06T04:18:12.837Z,9.87
2018-09-06T04:23:18.260Z,11.77
2018-09-06T04:28:21.747Z,11.47
2018-09-06T04:33:25.330Z,11.97
2018-09-06T04:38:29.238Z,11.33
2018-09-06T04:43:32.436Z,11.37
2018-09-06T04:48:35.750Z,10.90
2018-09-06T04:53:39.255Z,12.83
2018-09-06T04:58:42.477Z,11.90
2018-09-06T05:03:45.489Z,10.70
2018-09-06T05:08:48.541Z,11.00
2018-09-06T05:13:51.628Z,11.60
2018-09-06T05:18:55.725Z,11.53
2018-09-06T05:24:00.924Z,10.57
2018-09-06T05:29:04.821Z,11.50
2018-09-06T05:34:07.842Z,10.00
2018-09-06T05:39:12.370Z,11.87
2018-09-06T05:44:15.375Z,10.70
2018-09-06T05:49:19.312Z,10.50
2018-09-06T05:54:25.174Z,9.83
2018-09-06T05:59:33.871Z,10.63
2018-09-06T06:04:38.026Z,10.43
2018-09-06T06:09:41.232Z,9.40
2018-09-06T06:14:44.225Z,10.30
2018-09-06T06:19:47.483Z,10.07
2018-09-06T06:24:50.507Z,10.00
2018-09-06T06:29:53.625Z,10.13
2018-09-06T06:34:58.679Z,10.67
2018-09-06T06:40:02.793Z,10.93
2018-09-06T06:45:06.207Z,8.90
2018-09-06T06:50:09.569Z,9.30
2018-09-06T06:55:12.626Z,10.07
2018-09-06T07:00:17.090Z,9.47
2018-09-06T07:05:22.386Z,9.57
2018-09-06T07:10:30.195Z,8.80
2018-09-06T07:15:34.706Z,8.27
2018-09-06T07:20:39.369Z,9.27
2018-09-06T07:25:42.409Z,8.87
2018-09-06T07:30:45.633Z,8.70
2018-09-06T07:35:48.669Z,7.57
2018-09-06T07:40:51.703Z,7.70
2018-09-06T07:45:56.965Z,7.78
2018-09-06T07:51:04.193Z,8.30
2018-09-06T07:56:09.139Z,8.23
2018-09-06T08:01:12.149Z,8.27
2018-09-06T08:06:15.165Z,7.30
2018-09-06T08:11:18.230Z,7.80
2018-09-06T08:16:21.302Z,7.10
2018-09-06T08:21:29.111Z,7.37
2018-09-06T08:26:35.495Z,6.70
2018-09-06T08:31:39.396Z,7.87
2018-09-06T08:36:42.541Z,7.43
2018-09-06T08:41:45.746Z,6.83
2018-09-06T08:46:49.009Z,8.63
2018-09-06T08:51:56.768Z,6.57
2018-09-06T08:57:02.585Z,7.43
2018-09-06T09:02:14.205Z,6.17
2018-09-06T09:07:17.333Z,6.77
2018-09-06T09:12:20.841Z,8.47
2018-09-06T09:17:26.168Z,7.60
2018-09-06T09:22:32.467Z,6.90
2018-09-06T09:27:37.109Z,7.90
2018-09-06T09:32:40.255Z,6.63
2018-09-06T09:37:43.410Z,8.20
2018-09-06T09:42:46.445Z,7.73
2018-09-06T09:47:50.087Z,8.20
2018-09-06T09:52:55.286Z,8.17
2018-09-06T09:58:02.362Z,7.67
2018-09-06T10:03:13.897Z,7.90
2018-09-06T10:08:25.849Z,8.70
2018-09-06T10:13:31.595Z,7.70
2018-09-06T10:18:36.456Z,7.67
2018-09-06T10:23:39.682Z,6.80
2018-09-06T10:28:42.727Z,7.10
2018-09-06T10:33:45.792Z,7.00
2018-09-06T10:38:49.803Z,7.50
2018-09-06T10:43:53.996Z,6.53
2018-09-06T10:49:03.976Z,8.00
2018-09-06T10:54:08.218Z,7.40
2018-09-06T10:59:11.447Z,7.03
2018-09-06T11:04:14.593Z,7.20
2018-09-06T11:09:17.798Z,7.33
2018-09-06T11:14:21.675Z,8.33
2018-09-06T11:19:25.232Z,6.70
2018-09-06T11:24:30.724Z,8.37
2018-09-06T11:29:34.916Z,7.00
2018-09-06T11:34:38.903Z,7.00
2018-09-06T11:39:42.334Z,8.63
2018-09-06T11:44:47.027Z,7.90
2018-09-06T11:49:50.747Z,9.17
2018-09-06T11:54:54.271Z,7.10
2018-09-06T11:59:57.887Z,7.00
2018-09-06T12:05:01.900Z,7.60
2018-09-06T12:10:05.500Z,8.37
2018-09-06T12:15:08.908Z,7.17
2018-09-06T12:20:12.139Z,7.50
2018-09-06T12:25:15.621Z,8.60
2018-09-06T12:30:20.071Z,8.43
2018-09-06T12:35:23.433Z,10.90
2018-09-06T12:40:26.742Z,11.63
2018-09-06T12:45:37.204Z,10.30
2018-09-06T12:50:40.361Z,11.20
2018-09-06T12:55:43.406Z,11.43
2018-09-06T13:00:46.534Z,11.40
2018-09-06T13:05:51.004Z,13.27
2018-09-06T13:10:54.671Z,12.53
2018-09-06T13:15:58.975Z,12.10
2018-09-06T13:21:03.169Z,12.13
2018-09-06T13:26:07.273Z,12.77
2018-09-06T13:31:10.782Z,13.87
2018-09-06T13:36:13.830Z,15.57
2018-09-06T13:41:16.949Z,14.30
2018-09-06T13:46:20.019Z,14.23
2018-09-06T13:51:23.065Z,13.90
2018-09-06T13:56:37.854Z,13.60
2018-09-06T14:01:42.461Z,13.40
2018-09-06T14:06:45.498Z,12.37
2018-09-06T14:11:50.155Z,12.60
2018-09-06T14:16:54.268Z,16.93
2018-09-06T14:21:57.370Z,12.87
2018-09-06T14:27:00.409Z,12.43
2018-09-06T14:32:03.876Z,13.27
2018-09-06T14:37:06.987Z,14.30
2018-09-06T14:42:14.874Z,15.60
2018-09-06T14:47:23.167Z,14.17
2018-09-06T14:52:26.262Z,13.00
2018-09-06T14:57:29.291Z,14.33
2018-09-06T15:02:32.418Z,12.47
2018-09-06T15:07:35.430Z,15.60
2018-09-06T15:12:38.545Z,14.70
2018-09-06T15:17:41.579Z,12.97
2018-09-06T15:22:49.001Z,14.67
2018-09-06T15:27:53.854Z,14.57
2018-09-06T15:32:59.315Z,14.40
2018-09-06T15:38:02.397Z,13.93
2018-09-06T15:43:05.502Z,13.70
2018-09-06T15:48:08.594Z,14.20
2018-09-06T15:53:11.693Z,14.07
2018-09-06T15:58:17.860Z,16.23
2018-09-06T16:03:23.266Z,26.80
2018-09-06T16:08:26.358Z,14.90
2018-09-06T16:13:29.587Z,13.90
2018-09-06T16:18:32.662Z,12.20
2018-09-06T16:23:35.668Z,11.60
2018-09-06T16:28:38.767Z,13.60
2018-09-06T16:33:43.230Z,12.33
2018-09-06T16:38:50.349Z,10.43
2018-09-06T16:43:54.550Z,12.90
2018-09-06T16:48:57.554Z,11.50
2018-09-06T16:54:00.579Z,12.17
2018-09-06T16:59:03.649Z,11.30
2018-09-06T17:04:06.723Z,10.53
2018-09-06T17:09:09.804Z,10.20
2018-09-06T17:14:14.225Z,10.83
2018-09-06T17:19:19.746Z,10.88
2018-09-06T17:24:23.558Z,10.80
2018-09-06T17:29:28.309Z,11.37
2018-09-06T17:34:32.393Z,13.80
2018-09-06T17:39:35.446Z,13.53
2018-09-06T17:44:38.785Z,10.37
2018-09-06T17:49:41.956Z,13.50
2018-09-06T17:54:46.871Z,14.00
2018-09-06T17:59:52.535Z,13.57
2018-09-06T18:04:57.217Z,11.53
2018-09-06T18:10:01.563Z,13.33
2018-09-06T18:15:05.085Z,11.20
2018-09-06T18:20:08.203Z,10.97
2018-09-06T18:25:11.346Z,10.70
2018-09-06T18:30:18.110Z,11.20
2018-09-06T18:35:22.864Z,9.23
2018-09-06T18:40:27.735Z,8.43
2018-09-06T18:45:31.878Z,8.73
2018-09-06T18:50:35.630Z,8.83
2018-09-06T18:55:39.921Z,10.20
2018-09-06T19:00:45.303Z,9.20
2018-09-06T19:05:49.387Z,10.53
2018-09-06T19:10:54.329Z,9.60
2018-09-06T19:15:57.333Z,9.73
2018-09-06T19:21:00.352Z,9.37
2018-09-06T19:26:03.500Z,9.40
2018-09-06T19:31:10.398Z,8.83
2018-09-06T19:36:18.187Z,9.40
2018-09-06T19:41:22.121Z,8.90
2018-09-06T19:46:25.130Z,9.60
2018-09-06T19:51:28.146Z,10.23
2018-09-06T19:56:31.179Z,9.90
2018-09-06T20:01:35.043Z,9.50
2018-09-06T20:06:40.969Z,8.43
2018-09-06T20:11:45.737Z,10.00
2018-09-06T20:16:48.927Z,10.23
2018-09-06T20:21:52.231Z,9.87
2018-09-06T20:26:55.237Z,9.60
2018-09-06T20:31:58.247Z,9.13
2018-09-06T20:37:02.482Z,9.67
2018-09-06T20:42:07.250Z,9.90
2018-09-06T20:47:15.872Z,9.70
2018-09-06T20:52:19.197Z,9.80
2018-09-06T20:57:23.364Z,9.17
2018-09-06T21:02:26.528Z,9.27
2018-09-06T21:07:29.983Z,9.63
2018-09-06T21:12:33.205Z,9.43
2018-09-06T21:17:36.160Z,9.30
2018-09-06T21:22:39.729Z,10.27
2018-09-06T21:27:43.890Z,10.60
2018-09-06T21:32:47.593Z,9.47
2018-09-06T21:37:51.593Z,10.03
2018-09-06T21:42:54.576Z,10.50
2018-09-06T21:47:57.562Z,11.03
2018-09-06T21:53:01.229Z,10.03
2018-09-06T21:58:04.946Z,10.90
2018-09-06T22:03:13.747Z,11.67
2018-09-06T22:08:17.580Z,13.70
2018-09-06T22:13:21.334Z,14.87
2018-09-06T22:18:24.318Z,17.50
2018-09-06T22:23:27.316Z,18.90
2018-09-06T22:28:30.757Z,22.90
2018-09-06T22:33:34.226Z,25.60
2018-09-06T22:38:37.236Z,26.20
2018-09-06T22:43:45.140Z,26.77
2018-09-06T22:48:48.752Z,25.70
2018-09-06T22:53:51.752Z,25.67
2018-09-06T22:58:54.756Z,26.23
2018-09-06T23:03:57.775Z,26.23
2018-09-06T23:09:01.321Z,25.00
2018-09-06T23:14:04.745Z,28.43
2018-09-06T23:19:08.198Z,27.07
2018-09-06T23:24:14.127Z,26.57
2018-09-06T23:29:17.750Z,27.20
2018-09-06T23:34:20.719Z,29.23
2018-09-06T23:39:23.738Z,31.20
2018-09-06T23:44:26.776Z,34.23
2018-09-06T23:49:29.829Z,32.90
2018-09-06T23:54:33.696Z,34.93
2018-09-06T23:59:36.752Z,38.00
